sensor_id;sensor_type;location;lat;lon;timestamp;temperature;humidity
45115;DHT22;30877;43.706;10.780;2022-07-23T00:00:47;28.50;96.70
45115;DHT22;30877;43.706;10.780;2022-07-23T00:03:15;28.50;96.70
45115;DHT22;30877;43.706;10.780;2022-07-23T00:05:43;28.50;96.70
45115;DHT22;30877;43.706;10.780;2022-07-23T00:08:11;28.50;96.70
45115;DHT22;30877;43.706;10.780;2022-07-23T00:10:41;28.50;96.70
45115;DHT22;30877;43.706;10.780;2022-07-23T00:13:09;28.60;96.70
45115;DHT22;30877;43.706;10.780;2022-07-23T00:15:38;28.50;96.70
45115;DHT22;30877;43.706;10.780;2022-07-23T00:18:06;28.50;96.70
45115;DHT22;30877;43.706;10.780;2022-07-23T00:20:34;28.40;96.70
45115;DHT22;30877;43.706;10.780;2022-07-23T00:23:02;28.40;96.70
45115;DHT22;30877;43.706;10.780;2022-07-23T00:25:30;28.50;96.70
45115;DHT22;30877;43.706;10.780;2022-07-23T00:27:59;28.40;96.70
45115;DHT22;30877;43.706;10.780;2022-07-23T00:30:29;28.40;96.70
45115;DHT22;30877;43.706;10.780;2022-07-23T00:33:01;28.30;96.70
45115;DHT22;30877;43.706;10.780;2022-07-23T00:35:37;28.20;96.70
45115;DHT22;30877;43.706;10.780;2022-07-23T00:38:07;28.10;96.70
45115;DHT22;30877;43.706;10.780;2022-07-23T00:40:37;28.10;96.70
45115;DHT22;30877;43.706;10.780;2022-07-23T00:43:06;28.20;96.70
45115;DHT22;30877;43.706;10.780;2022-07-23T00:45:34;28.20;96.70
45115;DHT22;30877;43.706;10.780;2022-07-23T00:48:04;28.10;96.70
45115;DHT22;30877;43.706;10.780;2022-07-23T00:50:32;28.10;96.70
45115;DHT22;30877;43.706;10.780;2022-07-23T00:53:00;28.10;96.70
45115;DHT22;30877;43.706;10.780;2022-07-23T00:55:28;28.10;96.70
45115;DHT22;30877;43.706;10.780;2022-07-23T00:57:57;28.00;96.70
45115;DHT22;30877;43.706;10.780;2022-07-23T01:00:26;28.00;96.70
45115;DHT22;30877;43.706;10.780;2022-07-23T01:02:55;27.90;96.70
45115;DHT22;30877;43.706;10.780;2022-07-23T01:05:27;27.90;96.70
45115;DHT22;30877;43.706;10.780;2022-07-23T01:07:55;27.90;96.70
45115;DHT22;30877;43.706;10.780;2022-07-23T01:10:25;27.90;96.70
45115;DHT22;30877;43.706;10.780;2022-07-23T01:12:59;27.80;96.70
45115;DHT22;30877;43.706;10.780;2022-07-23T01:15:28;27.70;96.70
45115;DHT22;30877;43.706;10.780;2022-07-23T01:17:56;27.70;96.70
45115;DHT22;30877;43.706;10.780;2022-07-23T01:20:24;27.70;96.70
45115;DHT22;30877;43.706;10.780;2022-07-23T01:22:55;27.60;96.70
45115;DHT22;30877;43.706;10.780;2022-07-23T01:25:23;27.60;96.70
45115;DHT22;30877;43.706;10.780;2022-07-23T01:27:56;27.60;96.70
45115;DHT22;30877;43.706;10.780;2022-07-23T01:30:24;27.50;96.70
45115;DHT22;30877;43.706;10.780;2022-07-23T01:32:52;27.50;96.70
45115;DHT22;30877;43.706;10.780;2022-07-23T01:35:20;27.40;96.70
45115;DHT22;30877;43.706;10.780;2022-07-23T01:37:49;27.40;96.70
45115;DHT22;30877;43.706;10.780;2022-07-23T01:40:20;27.40;96.70
45115;DHT22;30877;43.706;10.780;2022-07-23T01:42:50;27.30;96.70
45115;DHT22;30877;43.706;10.780;2022-07-23T01:45:19;27.30;96.70
45115;DHT22;30877;43.706;10.780;2022-07-23T01:47:50;27.20;96.70
45115;DHT22;30877;43.706;10.780;2022-07-23T01:50:18;27.20;96.70
45115;DHT22;30877;43.706;10.780;2022-07-23T01:53:16;27.30;96.70
45115;DHT22;30877;43.706;10.780;2022-07-23T01:55:46;27.40;96.70
45115;DHT22;30877;43.706;10.780;2022-07-23T01:58:14;27.40;96.70
45115;DHT22;30877;43.706;10.780;2022-07-23T02:00:42;27.40;96.70
45115;DHT22;30877;43.706;10.780;2022-07-23T02:03:10;27.30;96.70
45115;DHT22;30877;43.706;10.780;2022-07-23T02:05:38;27.40;96.70
45115;DHT22;30877;43.706;10.780;2022-07-23T02:08:06;27.40;96.70
45115;DHT22;30877;43.706;10.780;2022-07-23T02:10:36;27.30;96.70
45115;DHT22;30877;43.706;10.780;2022-07-23T02:13:05;27.30;96.70
45115;DHT22;30877;43.706;10.780;2022-07-23T02:15:33;27.30;96.70
45115;DHT22;30877;43.706;10.780;2022-07-23T02:18:01;27.20;96.70
45115;DHT22;30877;43.706;10.780;2022-07-23T02:20:31;27.20;96.70
45115;DHT22;30877;43.706;10.780;2022-07-23T02:22:59;27.10;96.70
45115;DHT22;30877;43.706;10.780;2022-07-23T02:25:27;27.10;96.70
45115;DHT22;30877;43.706;10.780;2022-07-23T02:28:00;27.10;96.70
45115;DHT22;30877;43.706;10.780;2022-07-23T02:30:30;27.20;96.70
45115;DHT22;30877;43.706;10.780;2022-07-23T02:32:58;27.20;96.70
45115;DHT22;30877;43.706;10.780;2022-07-23T02:35:26;27.20;96.70
45115;DHT22;30877;43.706;10.780;2022-07-23T02:37:57;27.10;96.70
45115;DHT22;30877;43.706;10.780;2022-07-23T02:40:26;27.10;96.70
45115;DHT22;30877;43.706;10.780;2022-07-23T02:42:54;27.10;96.70
45115;DHT22;30877;43.706;10.780;2022-07-23T02:45:22;27.00;96.70
45115;DHT22;30877;43.706;10.780;2022-07-23T02:47:54;27.10;96.70
45115;DHT22;30877;43.706;10.780;2022-07-23T02:50:22;27.10;96.70
45115;DHT22;30877;43.706;10.780;2022-07-23T02:52:53;27.10;96.70
45115;DHT22;30877;43.706;10.780;2022-07-23T02:55:23;27.00;96.70
45115;DHT22;30877;43.706;10.780;2022-07-23T02:57:52;27.00;96.70
45115;DHT22;30877;43.706;10.780;2022-07-23T03:00:20;27.10;96.70
45115;DHT22;30877;43.706;10.780;2022-07-23T03:02:48;27.10;96.70
45115;DHT22;30877;43.706;10.780;2022-07-23T03:05:18;27.10;96.70
45115;DHT22;30877;43.706;10.780;2022-07-23T03:07:46;27.10;96.70
45115;DHT22;30877;43.706;10.780;2022-07-23T03:10:14;27.10;96.70
45115;DHT22;30877;43.706;10.780;2022-07-23T03:12:44;27.10;96.70
45115;DHT22;30877;43.706;10.780;2022-07-23T03:15:12;27.00;96.70
45115;DHT22;30877;43.706;10.780;2022-07-23T03:17:41;26.90;96.70
45115;DHT22;30877;43.706;10.780;2022-07-23T03:20:09;26.90;96.70
45115;DHT22;30877;43.706;10.780;2022-07-23T03:22:40;26.90;96.70
45115;DHT22;30877;43.706;10.780;2022-07-23T03:25:09;26.90;96.70
45115;DHT22;30877;43.706;10.780;2022-07-23T03:27:37;26.90;96.70
45115;DHT22;30877;43.706;10.780;2022-07-23T03:30:06;26.80;96.70
45115;DHT22;30877;43.706;10.780;2022-07-23T03:32:34;26.80;96.70
45115;DHT22;30877;43.706;10.780;2022-07-23T03:35:03;26.80;96.70
45115;DHT22;30877;43.706;10.780;2022-07-23T03:37:35;26.80;96.70
45115;DHT22;30877;43.706;10.780;2022-07-23T03:40:05;26.80;96.70
45115;DHT22;30877;43.706;10.780;2022-07-23T03:42:34;26.80;96.70
45115;DHT22;30877;43.706;10.780;2022-07-23T03:45:03;26.80;96.70
45115;DHT22;30877;43.706;10.780;2022-07-23T03:47:32;26.80;96.70
45115;DHT22;30877;43.706;10.780;2022-07-23T03:49:59;26.80;96.70
45115;DHT22;30877;43.706;10.780;2022-07-23T03:52:28;26.90;96.70
45115;DHT22;30877;43.706;10.780;2022-07-23T03:54:56;26.80;96.70
45115;DHT22;30877;43.706;10.780;2022-07-23T03:57:26;26.70;96.70
45115;DHT22;30877;43.706;10.780;2022-07-23T03:59:54;26.70;96.70
45115;DHT22;30877;43.706;10.780;2022-07-23T04:02:22;26.70;96.70
45115;DHT22;30877;43.706;10.780;2022-07-23T04:04:50;26.70;96.70
45115;DHT22;30877;43.706;10.780;2022-07-23T04:07:18;26.60;96.70
45115;DHT22;30877;43.706;10.780;2022-07-23T04:09:46;26.60;96.70
45115;DHT22;30877;43.706;10.780;2022-07-23T04:12:15;26.60;96.70
45115;DHT22;30877;43.706;10.780;2022-07-23T04:14:45;26.50;96.70
45115;DHT22;30877;43.706;10.780;2022-07-23T04:17:13;26.40;96.70
45115;DHT22;30877;43.706;10.780;2022-07-23T04:19:42;26.40;96.70
45115;DHT22;30877;43.706;10.780;2022-07-23T04:22:15;26.40;96.70
45115;DHT22;30877;43.706;10.780;2022-07-23T04:24:43;26.40;96.70
45115;DHT22;30877;43.706;10.780;2022-07-23T04:27:11;26.40;96.70
45115;DHT22;30877;43.706;10.780;2022-07-23T04:29:39;26.50;96.70
45115;DHT22;30877;43.706;10.780;2022-07-23T04:32:10;26.50;96.70
45115;DHT22;30877;43.706;10.780;2022-07-23T04:34:38;26.50;96.70
45115;DHT22;30877;43.706;10.780;2022-07-23T04:37:07;26.50;96.70
45115;DHT22;30877;43.706;10.780;2022-07-23T04:39:36;26.60;96.70
45115;DHT22;30877;43.706;10.780;2022-07-23T04:42:05;26.50;96.70
45115;DHT22;30877;43.706;10.780;2022-07-23T04:44:33;26.50;96.70
45115;DHT22;30877;43.706;10.780;2022-07-23T04:47:03;26.40;96.70
45115;DHT22;30877;43.706;10.780;2022-07-23T04:49:34;26.40;96.70
45115;DHT22;30877;43.706;10.780;2022-07-23T04:52:03;26.50;96.70
45115;DHT22;30877;43.706;10.780;2022-07-23T04:54:31;26.60;96.70
45115;DHT22;30877;43.706;10.780;2022-07-23T04:57:00;26.60;96.70
45115;DHT22;30877;43.706;10.780;2022-07-23T04:59:28;26.60;96.70
45115;DHT22;30877;43.706;10.780;2022-07-23T05:02:01;26.70;96.70
45115;DHT22;30877;43.706;10.780;2022-07-23T05:04:30;26.60;96.70
45115;DHT22;30877;43.706;10.780;2022-07-23T05:07:00;26.60;96.70
45115;DHT22;30877;43.706;10.780;2022-07-23T05:09:29;26.60;96.70
45115;DHT22;30877;43.706;10.780;2022-07-23T05:11:57;26.50;96.70
45115;DHT22;30877;43.706;10.780;2022-07-23T05:14:26;26.50;96.70
45115;DHT22;30877;43.706;10.780;2022-07-23T05:16:55;26.50;96.70
45115;DHT22;30877;43.706;10.780;2022-07-23T05:19:23;26.50;96.70
45115;DHT22;30877;43.706;10.780;2022-07-23T05:21:53;26.60;96.70
45115;DHT22;30877;43.706;10.780;2022-07-23T05:24:23;26.60;96.70
45115;DHT22;30877;43.706;10.780;2022-07-23T05:26:52;26.60;96.70
45115;DHT22;30877;43.706;10.780;2022-07-23T05:29:21;26.60;96.70
45115;DHT22;30877;43.706;10.780;2022-07-23T05:31:50;26.60;96.70
45115;DHT22;30877;43.706;10.780;2022-07-23T05:34:18;26.60;96.70
45115;DHT22;30877;43.706;10.780;2022-07-23T05:36:47;26.70;96.70
45115;DHT22;30877;43.706;10.780;2022-07-23T05:39:17;26.70;96.70
45115;DHT22;30877;43.706;10.780;2022-07-23T05:41:47;26.70;96.70
45115;DHT22;30877;43.706;10.780;2022-07-23T05:44:15;26.80;96.70
45115;DHT22;30877;43.706;10.780;2022-07-23T05:46:44;26.80;96.70
45115;DHT22;30877;43.706;10.780;2022-07-23T05:49:19;26.90;96.70
45115;DHT22;30877;43.706;10.780;2022-07-23T05:52:05;27.00;96.70
45115;DHT22;30877;43.706;10.780;2022-07-23T05:55:02;27.10;96.70
45115;DHT22;30877;43.706;10.780;2022-07-23T05:57:32;27.10;96.70
45115;DHT22;30877;43.706;10.780;2022-07-23T06:00:00;27.30;96.70
45115;DHT22;30877;43.706;10.780;2022-07-23T06:02:28;27.30;96.70
45115;DHT22;30877;43.706;10.780;2022-07-23T06:04:57;27.30;96.70
45115;DHT22;30877;43.706;10.780;2022-07-23T06:07:30;27.40;96.70
45115;DHT22;30877;43.706;10.780;2022-07-23T06:09:58;27.40;96.70
45115;DHT22;30877;43.706;10.780;2022-07-23T06:12:26;27.40;96.70
45115;DHT22;30877;43.706;10.780;2022-07-23T06:14:56;27.50;96.70
45115;DHT22;30877;43.706;10.780;2022-07-23T06:17:24;27.60;96.70
45115;DHT22;30877;43.706;10.780;2022-07-23T06:19:53;27.60;96.70
45115;DHT22;30877;43.706;10.780;2022-07-23T06:22:21;27.70;96.70
45115;DHT22;30877;43.706;10.780;2022-07-23T06:24:50;27.70;96.70
45115;DHT22;30877;43.706;10.780;2022-07-23T06:27:21;27.60;96.70
45115;DHT22;30877;43.706;10.780;2022-07-23T06:29:54;27.70;96.70
45115;DHT22;30877;43.706;10.780;2022-07-23T06:32:22;27.70;96.70
45115;DHT22;30877;43.706;10.780;2022-07-23T06:34:52;27.80;96.70
45115;DHT22;30877;43.706;10.780;2022-07-23T06:37:21;27.80;96.70
45115;DHT22;30877;43.706;10.780;2022-07-23T06:39:51;27.80;96.70
45115;DHT22;30877;43.706;10.780;2022-07-23T06:42:19;27.80;96.70
45115;DHT22;30877;43.706;10.780;2022-07-23T06:44:58;27.90;96.70
45115;DHT22;30877;43.706;10.780;2022-07-23T06:47:28;27.90;96.70
45115;DHT22;30877;43.706;10.780;2022-07-23T06:49:56;28.00;96.70
45115;DHT22;30877;43.706;10.780;2022-07-23T06:52:25;28.10;96.70
45115;DHT22;30877;43.706;10.780;2022-07-23T06:54:53;28.20;96.70
45115;DHT22;30877;43.706;10.780;2022-07-23T06:57:22;28.10;96.70
45115;DHT22;30877;43.706;10.780;2022-07-23T06:59:50;28.20;96.70
45115;DHT22;30877;43.706;10.780;2022-07-23T07:02:24;28.30;96.70
45115;DHT22;30877;43.706;10.780;2022-07-23T07:04:54;28.30;96.70
45115;DHT22;30877;43.706;10.780;2022-07-23T07:07:31;28.40;96.70
45115;DHT22;30877;43.706;10.780;2022-07-23T07:09:59;28.50;96.70
45115;DHT22;30877;43.706;10.780;2022-07-23T07:12:27;28.50;96.70
45115;DHT22;30877;43.706;10.780;2022-07-23T07:14:55;28.50;96.70
45115;DHT22;30877;43.706;10.780;2022-07-23T07:17:26;28.50;96.70
45115;DHT22;30877;43.706;10.780;2022-07-23T07:19:54;28.60;96.70
45115;DHT22;30877;43.706;10.780;2022-07-23T07:22:22;28.70;96.70
45115;DHT22;30877;43.706;10.780;2022-07-23T07:24:50;28.60;96.70
45115;DHT22;30877;43.706;10.780;2022-07-23T07:27:18;28.60;96.70
45115;DHT22;30877;43.706;10.780;2022-07-23T07:29:46;28.60;96.70
45115;DHT22;30877;43.706;10.780;2022-07-23T07:32:19;28.60;96.70
45115;DHT22;30877;43.706;10.780;2022-07-23T07:35:10;28.60;96.70
45115;DHT22;30877;43.706;10.780;2022-07-23T07:37:38;28.70;96.70
45115;DHT22;30877;43.706;10.780;2022-07-23T07:40:07;28.70;96.70
45115;DHT22;30877;43.706;10.780;2022-07-23T07:42:44;28.80;96.70
45115;DHT22;30877;43.706;10.780;2022-07-23T07:45:12;28.90;96.70
45115;DHT22;30877;43.706;10.780;2022-07-23T07:47:40;29.00;96.70
45115;DHT22;30877;43.706;10.780;2022-07-23T07:50:10;29.00;96.70
45115;DHT22;30877;43.706;10.780;2022-07-23T07:52:39;29.10;96.70
45115;DHT22;30877;43.706;10.780;2022-07-23T07:55:08;29.10;96.70
45115;DHT22;30877;43.706;10.780;2022-07-23T07:57:37;29.10;96.70
45115;DHT22;30877;43.706;10.780;2022-07-23T08:00:08;29.20;96.70
45115;DHT22;30877;43.706;10.780;2022-07-23T08:02:41;29.30;96.70
45115;DHT22;30877;43.706;10.780;2022-07-23T08:05:11;29.20;96.70
45115;DHT22;30877;43.706;10.780;2022-07-23T08:07:40;29.20;96.70
45115;DHT22;30877;43.706;10.780;2022-07-23T08:10:09;29.20;96.70
45115;DHT22;30877;43.706;10.780;2022-07-23T08:12:42;29.20;96.70
45115;DHT22;30877;43.706;10.780;2022-07-23T08:15:13;29.30;96.70
45115;DHT22;30877;43.706;10.780;2022-07-23T08:17:42;29.40;96.70
45115;DHT22;30877;43.706;10.780;2022-07-23T08:20:13;29.60;96.70
45115;DHT22;30877;43.706;10.780;2022-07-23T08:22:46;29.70;96.70
45115;DHT22;30877;43.706;10.780;2022-07-23T08:25:15;29.80;96.70
45115;DHT22;30877;43.706;10.780;2022-07-23T08:27:43;29.70;96.70
45115;DHT22;30877;43.706;10.780;2022-07-23T08:30:12;29.80;96.70
45115;DHT22;30877;43.706;10.780;2022-07-23T08:32:51;29.80;96.70
45115;DHT22;30877;43.706;10.780;2022-07-23T08:35:27;29.80;96.70
45115;DHT22;30877;43.706;10.780;2022-07-23T08:37:56;29.90;96.70
45115;DHT22;30877;43.706;10.780;2022-07-23T08:40:26;29.80;96.70
45115;DHT22;30877;43.706;10.780;2022-07-23T08:42:55;29.80;96.70
45115;DHT22;30877;43.706;10.780;2022-07-23T08:45:26;29.90;96.70
45115;DHT22;30877;43.706;10.780;2022-07-23T08:47:55;29.90;96.70
45115;DHT22;30877;43.706;10.780;2022-07-23T08:50:26;29.90;96.70
45115;DHT22;30877;43.706;10.780;2022-07-23T08:52:54;29.90;96.70
45115;DHT22;30877;43.706;10.780;2022-07-23T08:55:24;30.10;96.70
45115;DHT22;30877;43.706;10.780;2022-07-23T08:57:53;30.20;96.70
45115;DHT22;30877;43.706;10.780;2022-07-23T09:00:23;30.30;96.70
45115;DHT22;30877;43.706;10.780;2022-07-23T09:02:52;30.40;96.70
45115;DHT22;30877;43.706;10.780;2022-07-23T09:05:21;30.40;96.70
45115;DHT22;30877;43.706;10.780;2022-07-23T09:08:07;30.50;96.70
45115;DHT22;30877;43.706;10.780;2022-07-23T09:10:52;30.60;96.70
45115;DHT22;30877;43.706;10.780;2022-07-23T09:13:32;30.60;96.70
45115;DHT22;30877;43.706;10.780;2022-07-23T09:16:05;30.70;96.70
45115;DHT22;30877;43.706;10.780;2022-07-23T09:18:42;30.70;96.70
45115;DHT22;30877;43.706;10.780;2022-07-23T09:21:14;30.90;96.70
45115;DHT22;30877;43.706;10.780;2022-07-23T09:23:46;30.90;96.70
45115;DHT22;30877;43.706;10.780;2022-07-23T09:26:30;30.90;96.70
45115;DHT22;30877;43.706;10.780;2022-07-23T09:29:05;31.00;96.70
45115;DHT22;30877;43.706;10.780;2022-07-23T09:31:43;31.20;96.70
45115;DHT22;30877;43.706;10.780;2022-07-23T09:34:15;31.30;96.70
45115;DHT22;30877;43.706;10.780;2022-07-23T09:36:49;31.30;96.70
45115;DHT22;30877;43.706;10.780;2022-07-23T09:39:28;31.30;96.70
45115;DHT22;30877;43.706;10.780;2022-07-23T09:41:57;31.30;96.70
45115;DHT22;30877;43.706;10.780;2022-07-23T09:44:26;31.30;96.70
45115;DHT22;30877;43.706;10.780;2022-07-23T09:46:59;31.30;96.70
45115;DHT22;30877;43.706;10.780;2022-07-23T09:49:28;31.40;96.70
45115;DHT22;30877;43.706;10.780;2022-07-23T09:51:58;31.50;96.70
45115;DHT22;30877;43.706;10.780;2022-07-23T09:54:33;31.60;96.70
45115;DHT22;30877;43.706;10.780;2022-07-23T09:57:05;31.60;96.70
45115;DHT22;30877;43.706;10.780;2022-07-23T09:59:36;31.70;96.70
45115;DHT22;30877;43.706;10.780;2022-07-23T10:02:06;31.90;96.70
45115;DHT22;30877;43.706;10.780;2022-07-23T10:17:51;32.50;96.70
45115;DHT22;30877;43.706;10.780;2022-07-23T10:20:21;32.30;96.70
45115;DHT22;30877;43.706;10.780;2022-07-23T10:22:55;32.50;96.70
45115;DHT22;30877;43.706;10.780;2022-07-23T10:25:30;32.60;96.70
45115;DHT22;30877;43.706;10.780;2022-07-23T10:28:40;32.70;96.70
45115;DHT22;30877;43.706;10.780;2022-07-23T10:31:25;32.80;96.70
45115;DHT22;30877;43.706;10.780;2022-07-23T10:34:24;32.80;96.70
45115;DHT22;30877;43.706;10.780;2022-07-23T10:36:56;32.90;96.70
45115;DHT22;30877;43.706;10.780;2022-07-23T10:39:29;33.00;96.70
45115;DHT22;30877;43.706;10.780;2022-07-23T10:42:08;32.90;96.70
45115;DHT22;30877;43.706;10.780;2022-07-23T10:44:42;33.10;96.70
45115;DHT22;30877;43.706;10.780;2022-07-23T10:47:12;33.20;96.70
45115;DHT22;30877;43.706;10.780;2022-07-23T10:50:18;33.30;96.70
45115;DHT22;30877;43.706;10.780;2022-07-23T10:53:08;33.50;96.70
45115;DHT22;30877;43.706;10.780;2022-07-23T10:55:41;33.40;96.70
45115;DHT22;30877;43.706;10.780;2022-07-23T10:58:10;33.40;96.70
45115;DHT22;30877;43.706;10.780;2022-07-23T11:00:39;33.40;96.70
45115;DHT22;30877;43.706;10.780;2022-07-23T11:03:30;33.50;96.70
45115;DHT22;30877;43.706;10.780;2022-07-23T11:06:01;33.60;96.70
45115;DHT22;30877;43.706;10.780;2022-07-23T11:08:30;33.80;96.70
45115;DHT22;30877;43.706;10.780;2022-07-23T11:11:11;33.80;96.70
45115;DHT22;30877;43.706;10.780;2022-07-23T11:13:45;33.70;96.70
45115;DHT22;30877;43.706;10.780;2022-07-23T11:16:19;33.80;96.70
45115;DHT22;30877;43.706;10.780;2022-07-23T11:19:05;33.90;96.70
45115;DHT22;30877;43.706;10.780;2022-07-23T11:21:59;33.80;96.70
45115;DHT22;30877;43.706;10.780;2022-07-23T11:24:28;33.80;96.70
45115;DHT22;30877;43.706;10.780;2022-07-23T11:27:00;34.00;96.70
45115;DHT22;30877;43.706;10.780;2022-07-23T11:29:48;34.00;96.70
45115;DHT22;30877;43.706;10.780;2022-07-23T11:32:38;34.00;96.70
45115;DHT22;30877;43.706;10.780;2022-07-23T11:35:23;34.20;96.70
45115;DHT22;30877;43.706;10.780;2022-07-23T11:38:03;34.30;96.70
45115;DHT22;30877;43.706;10.780;2022-07-23T11:40:32;34.30;96.70
45115;DHT22;30877;43.706;10.780;2022-07-23T11:43:02;34.50;96.70
45115;DHT22;30877;43.706;10.780;2022-07-23T11:45:33;34.60;96.70
45115;DHT22;30877;43.706;10.780;2022-07-23T11:48:02;34.60;96.60
45115;DHT22;30877;43.706;10.780;2022-07-23T11:50:31;34.70;96.70
45115;DHT22;30877;43.706;10.780;2022-07-23T11:53:01;34.70;96.40
45115;DHT22;30877;43.706;10.780;2022-07-23T11:55:30;34.80;96.60
45115;DHT22;30877;43.706;10.780;2022-07-23T11:57:58;34.90;95.70
45115;DHT22;30877;43.706;10.780;2022-07-23T12:00:29;35.10;94.10
45115;DHT22;30877;43.706;10.780;2022-07-23T12:02:58;35.10;91.90
45115;DHT22;30877;43.706;10.780;2022-07-23T12:05:31;35.20;92.40
45115;DHT22;30877;43.706;10.780;2022-07-23T12:08:03;35.10;93.90
45115;DHT22;30877;43.706;10.780;2022-07-23T12:10:35;35.10;88.60
45115;DHT22;30877;43.706;10.780;2022-07-23T12:13:05;35.20;88.50
45115;DHT22;30877;43.706;10.780;2022-07-23T12:15:35;35.30;91.80
45115;DHT22;30877;43.706;10.780;2022-07-23T12:18:07;35.10;90.80
45115;DHT22;30877;43.706;10.780;2022-07-23T12:20:36;34.90;89.30
45115;DHT22;30877;43.706;10.780;2022-07-23T12:23:08;35.10;91.10
45115;DHT22;30877;43.706;10.780;2022-07-23T12:25:39;35.10;92.40
45115;DHT22;30877;43.706;10.780;2022-07-23T12:28:09;35.10;93.20
45115;DHT22;30877;43.706;10.780;2022-07-23T12:30:39;35.20;94.60
45115;DHT22;30877;43.706;10.780;2022-07-23T12:33:09;35.10;92.80
45115;DHT22;30877;43.706;10.780;2022-07-23T12:35:39;35.00;90.00
45115;DHT22;30877;43.706;10.780;2022-07-23T12:38:13;35.20;93.30
45115;DHT22;30877;43.706;10.780;2022-07-23T12:40:45;35.10;94.90
45115;DHT22;30877;43.706;10.780;2022-07-23T12:43:20;35.20;92.50
45115;DHT22;30877;43.706;10.780;2022-07-23T12:45:51;35.40;92.40
45115;DHT22;30877;43.706;10.780;2022-07-23T12:48:24;35.30;94.70
45115;DHT22;30877;43.706;10.780;2022-07-23T12:50:55;35.50;94.30
45115;DHT22;30877;43.706;10.780;2022-07-23T12:53:28;35.40;94.00
45115;DHT22;30877;43.706;10.780;2022-07-23T12:56:02;35.40;94.00
45115;DHT22;30877;43.706;10.780;2022-07-23T12:58:44;35.60;93.80
45115;DHT22;30877;43.706;10.780;2022-07-23T13:01:26;35.40;95.90
45115;DHT22;30877;43.706;10.780;2022-07-23T13:04:02;35.50;95.40
45115;DHT22;30877;43.706;10.780;2022-07-23T13:06:41;35.60;95.60
45115;DHT22;30877;43.706;10.780;2022-07-23T13:09:13;35.70;96.30
45115;DHT22;30877;43.706;10.780;2022-07-23T13:11:42;35.70;95.80
45115;DHT22;30877;43.706;10.780;2022-07-23T13:14:11;35.70;95.00
45115;DHT22;30877;43.706;10.780;2022-07-23T13:16:41;35.90;95.20
45115;DHT22;30877;43.706;10.780;2022-07-23T13:19:09;36.00;93.80
45115;DHT22;30877;43.706;10.780;2022-07-23T13:21:39;36.10;93.90
45115;DHT22;30877;43.706;10.780;2022-07-23T13:24:11;35.90;95.20
45115;DHT22;30877;43.706;10.780;2022-07-23T13:26:40;35.90;92.80
45115;DHT22;30877;43.706;10.780;2022-07-23T13:29:08;36.10;94.80
45115;DHT22;30877;43.706;10.780;2022-07-23T13:31:37;36.10;96.40
45115;DHT22;30877;43.706;10.780;2022-07-23T13:34:06;36.30;95.80
45115;DHT22;30877;43.706;10.780;2022-07-23T13:36:35;36.50;95.80
45115;DHT22;30877;43.706;10.780;2022-07-23T13:39:04;36.50;94.80
45115;DHT22;30877;43.706;10.780;2022-07-23T13:41:38;36.30;96.10
45115;DHT22;30877;43.706;10.780;2022-07-23T13:44:06;36.40;95.60
45115;DHT22;30877;43.706;10.780;2022-07-23T13:46:34;36.60;96.50
45115;DHT22;30877;43.706;10.780;2022-07-23T13:49:03;36.70;94.90
45115;DHT22;30877;43.706;10.780;2022-07-23T13:51:33;36.60;93.30
45115;DHT22;30877;43.706;10.780;2022-07-23T13:54:01;36.70;93.80
45115;DHT22;30877;43.706;10.780;2022-07-23T13:56:30;36.80;93.30
45115;DHT22;30877;43.706;10.780;2022-07-23T13:58:59;36.80;94.80
45115;DHT22;30877;43.706;10.780;2022-07-23T14:01:28;36.80;94.90
45115;DHT22;30877;43.706;10.780;2022-07-23T14:04:12;36.80;94.90
45115;DHT22;30877;43.706;10.780;2022-07-23T14:06:41;36.90;92.90
45115;DHT22;30877;43.706;10.780;2022-07-23T14:09:08;36.90;92.10
45115;DHT22;30877;43.706;10.780;2022-07-23T14:11:36;37.00;90.60
45115;DHT22;30877;43.706;10.780;2022-07-23T14:14:08;37.00;92.90
45115;DHT22;30877;43.706;10.780;2022-07-23T14:16:36;37.10;92.80
45115;DHT22;30877;43.706;10.780;2022-07-23T14:19:04;37.30;91.40
45115;DHT22;30877;43.706;10.780;2022-07-23T14:21:32;37.10;92.60
45115;DHT22;30877;43.706;10.780;2022-07-23T14:24:00;37.20;93.20
45115;DHT22;30877;43.706;10.780;2022-07-23T14:26:28;37.30;93.10
45115;DHT22;30877;43.706;10.780;2022-07-23T14:28:57;37.70;90.90
45115;DHT22;30877;43.706;10.780;2022-07-23T14:31:29;37.80;91.40
45115;DHT22;30877;43.706;10.780;2022-07-23T14:33:57;37.80;89.80
45115;DHT22;30877;43.706;10.780;2022-07-23T14:36:26;38.00;90.20
45115;DHT22;30877;43.706;10.780;2022-07-23T14:38:55;37.70;88.40
45115;DHT22;30877;43.706;10.780;2022-07-23T14:41:23;37.80;89.30
45115;DHT22;30877;43.706;10.780;2022-07-23T14:43:54;38.10;88.50
45115;DHT22;30877;43.706;10.780;2022-07-23T14:46:23;38.20;89.00
45115;DHT22;30877;43.706;10.780;2022-07-23T14:48:53;38.10;87.50
45115;DHT22;30877;43.706;10.780;2022-07-23T14:51:21;38.10;87.90
45115;DHT22;30877;43.706;10.780;2022-07-23T14:53:51;38.30;87.70
45115;DHT22;30877;43.706;10.780;2022-07-23T14:56:19;38.30;85.70
45115;DHT22;30877;43.706;10.780;2022-07-23T14:58:48;38.20;87.40
45115;DHT22;30877;43.706;10.780;2022-07-23T15:01:16;38.10;87.50
45115;DHT22;30877;43.706;10.780;2022-07-23T15:03:45;37.70;88.20
45115;DHT22;30877;43.706;10.780;2022-07-23T15:06:15;36.90;89.30
45115;DHT22;30877;43.706;10.780;2022-07-23T15:08:44;36.80;90.70
45115;DHT22;30877;43.706;10.780;2022-07-23T15:11:14;37.20;90.30
45115;DHT22;30877;43.706;10.780;2022-07-23T15:13:42;37.80;88.40
45115;DHT22;30877;43.706;10.780;2022-07-23T15:16:09;37.80;88.10
45115;DHT22;30877;43.706;10.780;2022-07-23T15:18:38;38.30;88.20
45115;DHT22;30877;43.706;10.780;2022-07-23T15:21:06;38.30;87.90
45115;DHT22;30877;43.706;10.780;2022-07-23T15:23:37;38.40;88.20
45115;DHT22;30877;43.706;10.780;2022-07-23T15:26:08;38.40;87.50
45115;DHT22;30877;43.706;10.780;2022-07-23T15:28:36;38.20;88.00
45115;DHT22;30877;43.706;10.780;2022-07-23T15:31:05;38.20;88.40
45115;DHT22;30877;43.706;10.780;2022-07-23T15:33:35;38.30;86.90
45115;DHT22;30877;43.706;10.780;2022-07-23T15:36:04;38.30;85.80
45115;DHT22;30877;43.706;10.780;2022-07-23T15:38:32;38.50;87.30
45115;DHT22;30877;43.706;10.780;2022-07-23T15:41:02;38.50;85.80
45115;DHT22;30877;43.706;10.780;2022-07-23T15:43:31;38.60;85.90
45115;DHT22;30877;43.706;10.780;2022-07-23T15:45:59;38.40;86.10
45115;DHT22;30877;43.706;10.780;2022-07-23T15:48:28;38.40;86.70
45115;DHT22;30877;43.706;10.780;2022-07-23T15:50:56;38.70;85.60